Time;durP1;ratioP1;P1;durP2;ratioP2;P2;SDS_P1;SDS_P2;PMS_P1;PMS_P2;Temp;Humidity;BMP_temperature;BMP_pressure;BME280_temperature;BME280_humidity;BME280_pressure;Samples;Min_cycle;Max_cycle;Signal;HPM_P1;HPM_P2
2021/07/05 00:01:49;;;;;;;9.23;7.57;;;;;;;17.05;84.73;100098.66;5003989;28;20208;-71
2021/07/05 00:04:17;;;;;;;7.80;7.00;;;;;;;16.97;86.67;100107.00;5001463;28;20660;-71
2021/07/05 00:06:44;;;;;;;8.30;7.50;;;;;;;16.87;86.87;100101.47;5006592;28;20295;-71
2021/07/05 00:09:10;;;;;;;7.97;7.13;;;;;;;16.78;86.77;100101.97;5005578;28;20218;-71
2021/07/05 00:11:37;;;;;;;8.97;7.17;;;;;;;16.74;88.29;100108.38;5007333;28;20819;-70
2021/07/05 00:14:03;;;;;;;8.93;7.73;;;;;;;16.68;88.81;100104.34;5004922;28;20224;-71
2021/07/05 00:16:30;;;;;;;8.97;7.67;;;;;;;16.62;88.86;100109.94;5005580;28;20234;-71
2021/07/05 00:18:56;;;;;;;7.53;6.73;;;;;;;16.58;89.59;100108.44;5004585;28;20211;-71
2021/07/05 00:21:24;;;;;;;8.60;7.70;;;;;;;16.52;90.81;100099.13;5004885;28;20617;-71
2021/07/05 00:23:50;;;;;;;8.30;7.50;;;;;;;16.45;90.11;100101.28;5019147;28;20223;-72
2021/07/05 00:26:17;;;;;;;9.40;7.83;;;;;;;16.40;90.35;100094.59;5008020;28;20680;-71
2021/07/05 00:28:43;;;;;;;9.43;8.00;;;;;;;16.39;90.91;100106.03;5003869;28;20743;-71
2021/07/05 00:31:10;;;;;;;8.83;7.93;;;;;;;16.28;91.21;100106.69;5009124;28;20679;-69
2021/07/05 00:33:36;;;;;;;11.03;8.40;;;;;;;16.17;90.72;100107.31;4991499;28;20222;-71
2021/07/05 00:36:04;;;;;;;8.63;7.73;;;;;;;16.17;91.38;100104.66;5000983;28;20215;-71
2021/07/05 00:38:32;;;;;;;9.37;8.37;;;;;;;16.05;91.73;100100.94;5003869;28;20240;-71
2021/07/05 00:40:59;;;;;;;12.27;8.17;;;;;;;16.10;94.58;100095.44;5003727;28;20735;-71
2021/07/05 00:43:25;;;;;;;8.77;7.77;;;;;;;16.09;94.24;100093.75;5007085;28;20232;-70
2021/07/05 00:45:51;;;;;;;10.77;8.90;;;;;;;15.95;93.48;100094.53;5004426;28;20204;-71
2021/07/05 00:48:18;;;;;;;9.13;8.23;;;;;;;15.89;93.73;100105.41;5003126;28;20208;-71
2021/07/05 00:50:44;;;;;;;8.90;7.97;;;;;;;15.84;94.44;100097.75;5000179;28;20216;-71
2021/07/05 00:53:11;;;;;;;8.47;7.60;;;;;;;15.78;94.92;100094.66;5044394;23;20238;-85
2021/07/05 00:55:40;;;;;;;10.67;9.13;;;;;;;15.87;96.24;100097.59;5012111;28;20209;-86
2021/07/05 00:58:06;;;;;;;8.77;7.87;;;;;;;15.85;95.43;100088.13;5024232;28;20305;-85
2021/07/05 01:00:34;;;;;;;9.63;8.17;;;;;;;15.81;95.82;100095.31;5022361;28;20286;-85
2021/07/05 01:05:42;;;;;;;10.33;8.70;;;;;;;15.71;95.38;100087.06;4955654;28;20227;-70
2021/07/05 01:08:09;;;;;;;9.20;8.30;;;;;;;15.66;95.85;100085.63;4957425;28;20256;-72
2021/07/05 01:10:35;;;;;;;10.43;8.77;;;;;;;15.56;95.54;100090.53;4965001;28;20210;-72
2021/07/05 01:13:04;;;;;;;10.80;8.93;;;;;;;15.57;97.26;100083.53;4961080;28;20312;-73
2021/07/05 01:15:32;;;;;;;9.97;8.90;;;;;;;15.44;97.17;100083.34;4946528;29;20570;-72
2021/07/05 01:18:01;;;;;;;10.67;9.17;;;;;;;15.41;97.92;100087.00;4957793;28;20232;-72
2021/07/05 01:20:32;;;;;;;11.30;8.97;;;;;;;15.43;98.85;100079.88;4961095;28;20227;-72
2021/07/05 01:23:00;;;;;;;11.10;8.90;;;;;;;15.45;98.13;100085.03;4952743;28;20302;-72
2021/07/05 01:25:29;;;;;;;10.40;8.60;;;;;;;15.41;98.77;100084.38;4957188;28;20208;-71
2021/07/05 01:27:56;;;;;;;9.97;8.87;;;;;;;15.34;98.87;100086.47;4954892;28;20259;-71
2021/07/05 01:30:24;;;;;;;10.93;8.70;;;;;;;15.37;99.19;100082.81;4958751;28;20203;-72
2021/07/05 01:32:54;;;;;;;11.63;9.13;;;;;;;15.38;99.43;100091.56;4961432;28;20206;-71
2021/07/05 01:35:21;;;;;;;9.03;8.07;;;;;;;15.39;100.00;100090.63;4958879;28;20214;-72
2021/07/05 01:37:47;;;;;;;12.40;9.07;;;;;;;15.32;99.96;100093.59;4955448;29;20206;-71
2021/07/05 01:40:17;;;;;;;12.13;9.53;;;;;;;15.23;98.85;100094.09;4962741;28;20217;-71
2021/07/05 01:42:48;;;;;;;10.67;9.57;;;;;;;15.16;99.85;100092.69;4958544;28;20310;-72
2021/07/05 01:45:15;;;;;;;12.50;10.20;;;;;;;15.08;99.99;100093.13;4952143;28;20616;-71
2021/07/05 01:47:42;;;;;;;11.20;9.20;;;;;;;15.12;100.00;100099.91;4959529;28;20664;-72
2021/07/05 01:50:09;;;;;;;10.17;9.03;;;;;;;15.02;99.97;100100.47;4958272;28;20208;-72
2021/07/05 01:52:35;;;;;;;10.27;9.23;;;;;;;15.02;100.00;100097.84;4961597;28;20206;-71
2021/07/05 01:55:02;;;;;;;10.10;9.00;;;;;;;15.06;100.00;100095.00;4956869;28;20321;-72
2021/07/05 01:57:33;;;;;;;11.50;9.97;;;;;;;15.07;100.00;100099.28;4959955;28;20202;-72
2021/07/05 02:00:01;;;;;;;11.10;9.70;;;;;;;14.90;100.00;100094.97;4957604;28;20265;-72
2021/07/05 02:02:28;;;;;;;12.80;9.63;;;;;;;14.82;100.00;100093.66;4960187;28;20207;-72
2021/07/05 02:04:54;;;;;;;11.17;9.67;;;;;;;14.81;100.00;100094.56;4958865;28;20238;-72
2021/07/05 02:07:22;;;;;;;10.03;9.03;;;;;;;14.77;100.00;100088.63;4958668;28;20202;-73
2021/07/05 02:09:49;;;;;;;11.33;9.07;;;;;;;14.93;100.00;100086.94;4959712;28;20231;-72
2021/07/05 02:12:16;;;;;;;15.53;9.87;;;;;;;14.95;100.00;100089.44;4955376;28;20209;-70
2021/07/05 02:14:44;;;;;;;11.27;9.67;;;;;;;14.87;100.00;100084.59;4961752;28;20257;-71
2021/07/05 02:17:11;;;;;;;11.83;10.13;;;;;;;14.94;100.00;100075.47;4961237;28;20204;-71
2021/07/05 02:19:39;;;;;;;12.17;9.43;;;;;;;14.80;100.00;100080.63;4959762;28;20306;-72
2021/07/05 02:22:06;;;;;;;12.10;9.53;;;;;;;14.68;100.00;100082.09;4956149;28;20202;-71
2021/07/05 02:24:34;;;;;;;10.63;9.37;;;;;;;14.71;100.00;100084.56;4940154;29;20362;-71
2021/07/05 02:27:00;;;;;;;12.93;10.23;;;;;;;14.64;100.00;100084.97;4957515;28;20698;-72
2021/07/05 02:29:27;;;;;;;11.37;10.17;;;;;;;14.66;100.00;100088.38;4948453;28;20237;-70
2021/07/05 02:31:54;;;;;;;12.63;9.60;;;;;;;14.55;100.00;100086.25;4958944;28;20218;-72
2021/07/05 02:34:21;;;;;;;12.60;9.70;;;;;;;14.61;100.00;100098.25;4956460;28;20296;-72
2021/07/05 02:36:47;;;;;;;15.00;10.43;;;;;;;14.53;100.00;100096.00;4956448;28;20210;-71
2021/07/05 02:39:14;;;;;;;13.30;10.23;;;;;;;14.46;100.00;100107.69;4958175;28;20283;-71
2021/07/05 02:41:40;;;;;;;10.93;9.80;;;;;;;14.45;100.00;100100.75;4955655;28;20294;-72
2021/07/05 02:44:07;;;;;;;11.50;9.80;;;;;;;14.57;100.00;100105.38;4955792;28;20302;-72
2021/07/05 02:46:33;;;;;;;12.17;9.70;;;;;;;14.42;100.00;100111.41;4960339;28;20208;-70
2021/07/05 02:49:01;;;;;;;11.23;9.90;;;;;;;14.54;100.00;100109.00;4940016;28;20353;-70
2021/07/05 02:51:28;;;;;;;12.07;10.53;;;;;;;14.61;100.00;100108.72;4960012;28;20199;-70
2021/07/05 02:53:54;;;;;;;13.10;10.17;;;;;;;14.41;100.00;100114.97;4954501;28;20313;-71
2021/07/05 02:56:21;;;;;;;12.37;10.80;;;;;;;14.44;100.00;100117.41;4957029;28;20212;-72
2021/07/05 02:58:47;;;;;;;12.47;10.67;;;;;;;14.42;100.00;100119.28;4955513;28;20217;-72
2021/07/05 03:01:14;;;;;;;14.00;10.53;;;;;;;14.49;100.00;100121.53;4941355;29;20563;-71
2021/07/05 03:03:41;;;;;;;12.57;11.00;;;;;;;14.56;100.00;100122.03;4952968;28;20238;-72
2021/07/05 03:06:08;;;;;;;12.53;10.10;;;;;;;14.49;100.00;100121.53;4955894;28;20277;-71
2021/07/05 03:08:35;;;;;;;12.97;10.60;;;;;;;14.42;100.00;100125.34;4953700;28;20671;-72
2021/07/05 03:11:01;;;;;;;10.93;9.83;;;;;;;14.44;100.00;100128.78;4955975;28;20339;-72
2021/07/05 03:13:28;;;;;;;13.30;11.33;;;;;;;14.43;100.00;100126.22;4956443;28;20226;-72
2021/07/05 03:15:55;;;;;;;12.80;11.40;;;;;;;14.53;100.00;100127.47;4956590;28;20202;-72
2021/07/05 03:18:22;;;;;;;14.37;11.60;;;;;;;14.55;100.00;100129.06;4963775;28;20217;-71
2021/07/05 03:20:50;;;;;;;13.60;11.13;;;;;;;14.63;100.00;100131.31;4960034;28;20198;-72
2021/07/05 03:23:19;;;;;;;11.97;10.67;;;;;;;14.63;100.00;100135.72;4956170;28;20226;-71
2021/07/05 03:25:46;;;;;;;14.63;11.53;;;;;;;14.67;100.00;100132.88;4952188;28;20213;-72
2021/07/05 03:28:17;;;;;;;14.90;11.47;;;;;;;14.66;100.00;100122.47;4954546;28;20202;-71
2021/07/05 03:30:46;;;;;;;12.00;10.50;;;;;;;14.73;100.00;100115.97;4954871;28;20216;-72
2021/07/05 03:33:13;;;;;;;13.50;11.23;;;;;;;14.80;100.00;100117.34;4963718;28;20807;-71
2021/07/05 03:35:40;;;;;;;11.97;10.77;;;;;;;14.83;100.00;100125.06;4959253;28;20214;-72
2021/07/05 03:38:08;;;;;;;14.50;12.00;;;;;;;14.91;100.00;100127.28;4958876;28;20211;-72
2021/07/05 03:40:37;;;;;;;13.10;11.27;;;;;;;14.95;100.00;100134.06;4958470;28;20308;-71
2021/07/05 03:43:05;;;;;;;13.10;11.07;;;;;;;15.08;100.00;100131.66;4962782;28;20549;-72
2021/07/05 03:45:34;;;;;;;15.67;11.93;;;;;;;15.15;100.00;100130.41;4963563;28;20270;-70
2021/07/05 03:48:01;;;;;;;13.90;11.53;;;;;;;15.20;100.00;100135.44;4963149;28;20566;-72
2021/07/05 03:50:28;;;;;;;16.73;12.73;;;;;;;15.29;100.00;100135.78;4959961;28;20274;-70
2021/07/05 03:52:55;;;;;;;13.37;11.87;;;;;;;15.41;100.00;100136.03;4963349;28;20244;-72
2021/07/05 03:55:24;;;;;;;15.47;12.20;;;;;;;15.48;100.00;100143.53;4961079;28;20206;-72
2021/07/05 03:57:52;;;;;;;13.60;11.97;;;;;;;15.59;100.00;100145.56;4961759;28;20207;-72
2021/07/05 04:00:21;;;;;;;14.07;11.33;;;;;;;15.67;100.00;100142.50;4964440;28;20312;-72
2021/07/05 04:02:48;;;;;;;13.90;11.93;;;;;;;15.77;100.00;100143.72;4952240;28;20213;-72
2021/07/05 04:05:15;;;;;;;12.77;10.67;;;;;;;15.93;100.00;100153.38;4959202;28;20237;-71
2021/07/05 04:07:43;;;;;;;12.37;10.93;;;;;;;16.03;100.00;100147.53;4959390;28;20218;-72
2021/07/05 04:10:11;;;;;;;12.77;11.00;;;;;;;16.17;99.70;100140.66;4963137;28;20214;-72
2021/07/05 04:12:38;;;;;;;12.20;10.83;;;;;;;16.33;99.52;100146.72;4942129;29;20206;-72
2021/07/05 04:15:07;;;;;;;12.97;10.47;;;;;;;16.47;98.39;100141.50;4941499;28;20303;-72
2021/07/05 04:17:34;;;;;;;12.20;10.27;;;;;;;16.62;97.14;100158.19;4959142;28;20207;-72
2021/07/05 04:20:00;;;;;;;11.43;9.97;;;;;;;16.76;96.30;100157.38;4959428;28;20301;-72
2021/07/05 04:22:27;;;;;;;10.13;9.10;;;;;;;16.84;94.94;100149.03;4960962;28;20214;-71
2021/07/05 04:24:53;;;;;;;11.07;9.87;;;;;;;16.97;95.13;100151.78;4962609;28;20221;-72
2021/07/05 04:27:19;;;;;;;11.80;9.17;;;;;;;17.09;93.89;100151.03;4965995;28;20208;-72
2021/07/05 04:29:46;;;;;;;10.67;9.13;;;;;;;17.20;94.84;100145.09;4958338;28;20283;-72
2021/07/05 04:32:13;;;;;;;11.63;9.00;;;;;;;17.24;93.69;100162.44;4961709;28;20214;-72
2021/07/05 04:34:40;;;;;;;10.57;9.27;;;;;;;17.32;94.26;100157.53;4956663;28;20312;-73
2021/07/05 04:37:06;;;;;;;9.40;8.40;;;;;;;17.38;93.88;100159.78;4941101;28;20215;-72
2021/07/05 04:39:33;;;;;;;9.73;8.73;;;;;;;17.46;94.16;100154.03;4957018;28;20202;-73
2021/07/05 04:41:59;;;;;;;10.07;8.73;;;;;;;17.52;94.47;100155.44;4964224;28;20553;-72
2021/07/05 04:44:26;;;;;;;9.77;8.77;;;;;;;17.55;93.95;100152.63;4953713;28;20262;-73
2021/07/05 04:46:52;;;;;;;10.07;8.53;;;;;;;17.56;93.45;100139.34;4959795;28;20209;-72
2021/07/05 04:49:21;;;;;;;8.93;8.03;;;;;;;17.58;93.54;100153.28;4957366;28;20329;-72
2021/07/05 04:51:48;;;;;;;9.20;8.30;;;;;;;17.64;93.83;100156.47;4962485;28;20211;-72
2021/07/05 04:54:15;;;;;;;10.50;8.37;;;;;;;17.70;94.03;100143.75;4955150;28;20223;-72
2021/07/05 04:56:42;;;;;;;9.13;7.50;;;;;;;17.70;94.63;100150.81;4941249;29;20684;-72
2021/07/05 04:59:08;;;;;;;8.07;7.23;;;;;;;17.70;94.47;100148.19;4957177;28;20207;-72
2021/07/05 05:01:35;;;;;;;10.00;7.70;;;;;;;17.76;94.71;100155.69;4956556;28;20675;-73
2021/07/05 05:04:01;;;;;;;10.03;8.30;;;;;;;17.71;94.19;100157.75;4957901;28;20223;-72
2021/07/05 05:06:29;;;;;;;7.77;6.97;;;;;;;17.73;94.07;100162.03;4956885;28;20194;-73
2021/07/05 05:08:56;;;;;;;8.40;7.43;;;;;;;17.77;94.33;100160.88;4959268;28;20234;-73
2021/07/05 05:11:22;;;;;;;9.27;7.40;;;;;;;17.82;93.76;100163.22;4956909;28;20229;-72
2021/07/05 05:13:49;;;;;;;9.83;7.47;;;;;;;17.89;93.51;100167.19;4964580;28;20246;-70
2021/07/05 05:16:16;;;;;;;8.10;7.27;;;;;;;17.89;93.88;100166.34;4955928;28;20222;-71
2021/07/05 05:18:43;;;;;;;9.00;7.47;;;;;;;17.95;93.20;100166.78;4961037;28;20603;-70
2021/07/05 05:21:10;;;;;;;8.77;7.27;;;;;;;18.03;93.21;100173.34;4957464;28;20769;-71
2021/07/05 05:23:38;;;;;;;8.07;7.27;;;;;;;18.14;93.52;100162.97;4963628;28;20230;-73
2021/07/05 05:26:04;;;;;;;7.97;7.07;;;;;;;18.21;93.25;100163.44;4950024;28;20211;-72
2021/07/05 05:28:31;;;;;;;8.03;7.23;;;;;;;18.32;93.09;100168.84;4961616;28;20238;-73
2021/07/05 05:30:58;;;;;;;8.13;7.17;;;;;;;18.41;93.38;100170.03;4957580;28;20766;-72
2021/07/05 05:33:25;;;;;;;7.77;6.97;;;;;;;18.48;92.43;100173.94;4958036;28;20622;-72
2021/07/05 05:35:52;;;;;;;7.17;6.47;;;;;;;18.49;92.71;100175.66;4957902;28;20202;-71
2021/07/05 05:38:18;;;;;;;8.53;6.93;;;;;;;18.56;92.39;100176.94;4957640;28;20305;-71
2021/07/05 05:40:46;;;;;;;7.70;6.83;;;;;;;18.64;93.07;100177.25;4959839;28;20879;-73
2021/07/05 05:43:13;;;;;;;7.90;6.67;;;;;;;18.72;91.70;100172.31;4956936;28;20298;-72
2021/07/05 05:45:39;;;;;;;7.73;6.47;;;;;;;18.83;90.78;100176.06;4961568;28;20234;-71
2021/07/05 05:48:06;;;;;;;9.43;6.33;;;;;;;19.06;91.41;100182.41;4960034;28;20278;-72
2021/07/05 05:50:33;;;;;;;7.47;6.30;;;;;;;19.27;89.86;100178.25;4962970;28;20209;-72
2021/07/05 05:52:59;;;;;;;6.83;6.10;;;;;;;19.33;89.51;100177.03;4957516;28;20218;-70
2021/07/05 05:55:25;;;;;;;7.20;6.27;;;;;;;19.38;87.28;100181.97;4958096;28;20204;-72
2021/07/05 05:57:53;;;;;;;6.93;6.07;;;;;;;19.48;87.89;100183.00;4955430;28;20230;-71
2021/07/05 06:00:23;;;;;;;6.73;6.13;;;;;;;19.58;87.70;100191.16;4957268;28;20210;-71
2021/07/05 06:02:50;;;;;;;7.37;6.20;;;;;;;19.59;86.98;100193.66;4954340;28;20228;-70
2021/07/05 06:05:17;;;;;;;6.83;5.70;;;;;;;19.58;87.63;100193.81;4957462;28;20225;-73
2021/07/05 06:07:47;;;;;;;7.23;5.63;;;;;;;19.54;87.08;100198.47;4958014;28;20237;-72
2021/07/05 06:10:14;;;;;;;7.93;5.80;;;;;;;19.46;87.87;100200.78;4959725;28;20314;-72
2021/07/05 06:12:41;;;;;;;7.63;5.60;;;;;;;19.49;87.99;100203.22;4958253;28;20205;-70
2021/07/05 06:15:10;;;;;;;7.53;5.13;;;;;;;19.39;86.92;100205.66;4958358;28;20215;-72
2021/07/05 06:17:36;;;;;;;6.60;5.03;;;;;;;19.44;86.88;100203.53;4953689;28;20910;-71
2021/07/05 06:20:04;;;;;;;6.00;5.10;;;;;;;19.40;86.59;100199.44;4954408;28;20672;-71
2021/07/05 06:22:38;;;;;;;5.97;5.20;;;;;;;19.42;86.48;100204.59;4956034;28;20206;-72
2021/07/05 06:25:06;;;;;;;5.90;5.27;;;;;;;19.39;86.41;100208.28;4956633;28;20234;-70
2021/07/05 06:27:32;;;;;;;6.63;5.00;;;;;;;19.37;86.21;100207.56;4957773;28;20203;-71
2021/07/05 06:29:59;;;;;;;5.53;4.80;;;;;;;19.35;86.30;100204.19;4958114;28;20273;-73
2021/07/05 06:32:26;;;;;;;5.37;4.57;;;;;;;19.35;86.08;100217.41;4957029;28;20201;-70
2021/07/05 06:34:53;;;;;;;6.00;4.53;;;;;;;19.37;86.28;100202.28;4957014;28;20226;-73
2021/07/05 06:37:19;;;;;;;5.30;4.60;;;;;;;19.37;84.75;100207.56;4961609;28;20623;-69
2021/07/05 06:39:45;;;;;;;5.13;4.63;;;;;;;19.50;84.50;100207.53;4958665;28;20222;-70
2021/07/05 06:42:12;;;;;;;5.80;4.90;;;;;;;19.67;84.97;100209.00;4959720;28;20210;-71
2021/07/05 06:44:38;;;;;;;6.67;4.50;;;;;;;19.75;85.63;100214.63;4960666;28;20234;-72
2021/07/05 06:47:05;;;;;;;5.80;4.40;;;;;;;19.76;83.95;100210.19;4956131;28;20215;-72
2021/07/05 06:49:32;;;;;;;5.17;4.60;;;;;;;19.79;83.68;100217.91;4957522;28;20214;-73
2021/07/05 06:51:59;;;;;;;4.83;4.33;;;;;;;19.83;82.55;100216.72;4954538;28;20452;-73
2021/07/05 06:54:25;;;;;;;4.77;4.07;;;;;;;19.93;82.43;100223.06;4942284;28;20226;-71
2021/07/05 06:56:52;;;;;;;5.40;4.10;;;;;;;19.89;82.68;100224.22;4954431;28;20195;-72
2021/07/05 06:59:18;;;;;;;5.77;4.43;;;;;;;19.86;81.61;100222.63;4962663;28;20210;-72
2021/07/05 07:01:45;;;;;;;4.17;3.77;;;;;;;19.90;81.57;100225.91;4955818;28;20203;-70
2021/07/05 07:04:12;;;;;;;4.57;4.17;;;;;;;19.86;81.03;100224.44;4964125;28;20795;-71
2021/07/05 07:06:39;;;;;;;4.53;4.07;;;;;;;19.98;81.81;100225.34;4940629;29;20278;-72
2021/07/05 07:09:06;;;;;;;4.30;3.77;;;;;;;19.88;81.51;100227.81;4961995;28;20305;-72
2021/07/05 07:11:32;;;;;;;4.33;3.93;;;;;;;19.96;82.32;100232.56;4957667;28;20206;-72
2021/07/05 07:13:59;;;;;;;4.80;3.77;;;;;;;19.98;80.76;100225.34;4958482;28;20309;-72
2021/07/05 07:16:28;;;;;;;5.37;3.47;;;;;;;20.09;79.57;100233.38;4957828;28;20203;-71
2021/07/05 07:19:16;;;;;;;4.03;3.27;;;;;;;20.22;77.84;100236.81;4958168;28;20217;-71
2021/07/05 07:21:46;;;;;;;4.03;3.57;;;;;;;20.39;78.40;100238.22;4941752;29;20270;-72
2021/07/05 07:24:12;;;;;;;4.53;3.20;;;;;;;20.50;78.84;100240.09;4941199;28;20238;-71
2021/07/05 07:26:39;;;;;;;3.83;3.20;;;;;;;20.58;76.25;100239.53;4944467;28;20718;-72
2021/07/05 07:29:05;;;;;;;5.30;3.43;;;;;;;20.67;77.34;100240.66;4956355;28;20210;-70
2021/07/05 07:31:32;;;;;;;4.07;3.03;;;;;;;20.76;76.10;100242.66;4940901;29;20203;-72
2021/07/05 07:33:58;;;;;;;4.83;3.10;;;;;;;20.83;75.26;100249.16;4960651;28;20226;-72
2021/07/05 07:36:25;;;;;;;3.00;2.70;;;;;;;20.94;76.25;100243.88;4967096;28;20721;-72
2021/07/05 07:38:58;;;;;;;3.23;2.93;;;;;;;21.12;74.03;100249.59;4956810;28;20211;-72
2021/07/05 07:41:26;;;;;;;3.30;2.93;;;;;;;21.29;73.50;100245.66;4956955;28;20278;-72
2021/07/05 07:43:53;;;;;;;3.47;3.07;;;;;;;21.35;72.04;100239.91;4943171;28;20290;-72
2021/07/05 07:46:19;;;;;;;3.40;3.10;;;;;;;21.35;72.13;100247.00;4956345;28;20234;-70
2021/07/05 07:48:45;;;;;;;2.77;2.57;;;;;;;21.53;73.63;100248.25;4963271;28;20226;-71
2021/07/05 07:51:12;;;;;;;3.57;3.20;;;;;;;21.74;72.52;100252.84;4955727;28;20215;-70
2021/07/05 07:53:38;;;;;;;3.30;3.00;;;;;;;21.89;72.93;100246.31;4956775;28;20230;-70
2021/07/05 07:56:06;;;;;;;3.30;2.77;;;;;;;21.75;72.60;100251.88;4953750;28;20211;-70
2021/07/05 07:58:33;;;;;;;3.20;2.70;;;;;;;21.68;71.27;100258.63;4956680;28;20210;-71
2021/07/05 08:00:59;;;;;;;2.63;2.43;;;;;;;21.70;72.14;100251.38;4957338;28;20245;-70
2021/07/05 08:03:26;;;;;;;2.60;2.40;;;;;;;21.65;71.58;100250.91;4963807;28;20237;-71
2021/07/05 08:05:54;;;;;;;3.00;2.70;;;;;;;21.59;72.97;100246.09;4959415;28;20219;-71
2021/07/05 08:08:21;;;;;;;3.07;2.67;;;;;;;21.61;71.16;100244.16;4960817;28;20210;-71
2021/07/05 08:10:47;;;;;;;2.85;2.55;;;;;;;21.73;71.79;100248.50;4956559;28;20209;-70
2021/07/05 08:13:15;;;;;;;2.65;2.40;;;;;;;21.81;73.35;100245.22;4961139;28;20546;-71
2021/07/05 08:15:41;;;;;;;2.90;2.60;;;;;;;21.85;73.66;100247.53;4965153;28;20246;-70
2021/07/05 08:18:08;;;;;;;2.95;2.70;;;;;;;21.80;73.11;100248.84;4956221;28;20690;-71
2021/07/05 08:20:35;;;;;;;2.90;2.60;;;;;;;21.83;73.31;100246.81;4963918;28;20229;-70
2021/07/05 08:23:03;;;;;;;2.88;2.40;;;;;;;21.73;70.43;100257.28;4963501;28;20205;-71
2021/07/05 08:25:29;;;;;;;2.53;2.33;;;;;;;21.89;72.61;100248.13;4969102;28;20318;-71
2021/07/05 08:27:56;;;;;;;2.67;2.45;;;;;;;21.53;72.55;100247.41;4963526;28;20217;-72
2021/07/05 08:30:24;;;;;;;3.00;2.70;;;;;;;21.62;73.89;100240.53;4963834;28;20226;-71
2021/07/05 08:32:51;;;;;;;3.35;2.88;;;;;;;21.57;72.77;100248.03;4957880;28;20214;-70
2021/07/05 08:35:19;;;;;;;3.50;2.70;;;;;;;21.55;72.89;100248.97;4963416;28;20730;-71
2021/07/05 08:37:45;;;;;;;4.72;2.95;;;;;;;21.50;73.78;100247.66;4957160;28;20206;-70
2021/07/05 08:40:13;;;;;;;3.60;3.10;;;;;;;21.48;75.01;100246.94;4962620;28;20277;-72
2021/07/05 08:42:40;;;;;;;4.07;2.85;;;;;;;21.35;77.59;100244.34;4953638;28;20535;-70
2021/07/05 08:45:08;;;;;;;3.50;3.00;;;;;;;21.14;77.45;100250.34;4959532;28;20249;-70
2021/07/05 08:47:38;;;;;;;3.37;3.03;;;;;;;21.11;79.30;100252.38;4959969;28;20207;-71
2021/07/05 08:50:06;;;;;;;4.78;2.65;;;;;;;20.97;78.50;100248.13;4952343;28;20826;-72
2021/07/05 08:52:32;;;;;;;3.13;2.70;;;;;;;20.92;79.28;100251.13;4958749;28;20208;-72
2021/07/05 08:54:59;;;;;;;3.20;2.90;;;;;;;20.83;80.80;100253.63;4955682;28;20310;-72
2021/07/05 08:57:30;;;;;;;3.47;3.07;;;;;;;20.67;81.56;100251.25;4955620;28;20206;-72
2021/07/05 08:59:57;;;;;;;4.13;2.90;;;;;;;20.64;82.49;100262.09;4950209;28;20210;-72
2021/07/05 09:02:24;;;;;;;3.33;2.87;;;;;;;20.72;83.35;100257.06;4953725;28;20221;-71
2021/07/05 09:04:52;;;;;;;3.13;2.83;;;;;;;20.69;81.43;100265.25;4950271;28;20334;-70
2021/07/05 09:07:19;;;;;;;2.97;2.67;;;;;;;20.59;81.10;100268.53;4952715;28;20206;-71
2021/07/05 09:09:59;;;;;;;3.50;3.20;;;;;;;20.48;82.30;100268.50;4953331;28;20214;-72
2021/07/05 09:12:25;;;;;;;3.17;2.80;;;;;;;20.41;82.40;100264.59;4950844;28;20216;-71
2021/07/05 09:15:08;;;;;;;3.50;2.90;;;;;;;20.51;85.14;100262.09;4953254;28;20768;-72
2021/07/05 09:17:36;;;;;;;4.07;3.23;;;;;;;20.50;84.93;100265.72;4950153;28;20211;-70
2021/07/05 09:20:18;;;;;;;4.40;2.90;;;;;;;20.35;81.70;100272.97;4939624;28;20202;-72
2021/07/05 09:23:10;;;;;;;3.60;3.30;;;;;;;20.13;81.73;100271.88;4952930;28;20737;-72
2021/07/05 09:25:38;;;;;;;3.57;3.10;;;;;;;20.16;83.44;100271.66;4957075;28;20707;-73
2021/07/05 09:28:05;;;;;;;4.47;2.90;;;;;;;20.30;84.82;100275.97;4950169;28;20217;-73
2021/07/05 09:30:37;;;;;;;4.83;3.13;;;;;;;20.36;84.31;100287.91;4952063;28;20239;-71
2021/07/05 09:33:20;;;;;;;3.20;2.90;;;;;;;20.32;85.34;100282.00;4954720;28;20233;-72
2021/07/05 09:35:49;;;;;;;3.50;3.20;;;;;;;20.44;87.72;100274.97;4932512;29;20217;-71
2021/07/05 09:38:31;;;;;;;3.23;2.93;;;;;;;20.49;87.54;100286.06;4960464;28;20209;-71
2021/07/05 09:40:58;;;;;;;3.57;3.17;;;;;;;20.42;86.21;100284.81;4952209;28;20199;-70
2021/07/05 09:43:26;;;;;;;3.90;3.00;;;;;;;20.47;86.01;100287.97;4952133;28;20227;-71
2021/07/05 09:45:53;;;;;;;3.60;2.80;;;;;;;20.57;87.31;100288.16;4951957;28;20254;-72
2021/07/05 09:48:23;;;;;;;3.37;2.90;;;;;;;20.55;87.66;100288.25;4956900;28;20203;-69
2021/07/05 09:50:58;;;;;;;5.93;3.13;;;;;;;20.49;87.94;100291.38;4950815;28;20220;-72
2021/07/05 09:53:26;;;;;;;2.97;2.67;;;;;;;20.38;87.34;100304.53;4953791;28;20222;-71
2021/07/05 09:55:53;;;;;;;3.73;2.87;;;;;;;20.43;87.66;100294.44;4953063;28;20601;-72
2021/07/05 09:58:31;;;;;;;3.13;2.50;;;;;;;20.42;87.29;100295.41;4954144;28;20264;-71
2021/07/05 10:00:57;;;;;;;6.17;2.70;;;;;;;20.40;89.15;100294.66;4933705;28;20209;-71
2021/07/05 10:03:33;;;;;;;2.83;2.63;;;;;;;20.30;89.97;100291.84;4951908;28;20235;-72
2021/07/05 10:06:15;;;;;;;3.70;2.57;;;;;;;20.24;89.38;100298.44;4958211;28;20209;-71
2021/07/05 10:08:42;;;;;;;2.20;2.00;;;;;;;20.13;87.52;100295.72;4955002;28;20206;-72
2021/07/05 10:11:08;;;;;;;2.80;2.30;;;;;;;20.18;88.09;100293.56;4955091;28;20237;-71
2021/07/05 10:13:34;;;;;;;2.17;2.00;;;;;;;20.16;88.66;100287.56;4948137;28;20230;-71
2021/07/05 10:16:02;;;;;;;2.37;2.17;;;;;;;20.00;88.66;100292.25;4958727;28;20826;-71
2021/07/05 10:18:29;;;;;;;2.30;2.10;;;;;;;19.96;88.49;100298.69;4951385;28;20249;-70
2021/07/05 10:20:55;;;;;;;2.60;2.40;;;;;;;20.00;89.90;100300.19;4939959;28;20217;-71
2021/07/05 10:23:23;;;;;;;2.50;2.30;;;;;;;19.99;89.40;100307.25;4952470;28;20924;-71
2021/07/05 10:25:51;;;;;;;2.20;2.03;;;;;;;19.97;90.51;100298.59;4953918;28;20221;-72
2021/07/05 10:28:19;;;;;;;2.57;2.10;;;;;;;19.83;88.76;100301.38;4959035;28;20236;-70
2021/07/05 10:30:49;;;;;;;2.50;2.20;;;;;;;19.91;90.73;100290.25;4951832;28;20695;-72
2021/07/05 10:33:15;;;;;;;3.60;2.50;;;;;;;20.00;91.08;100298.38;4955885;28;20322;-70
2021/07/05 10:35:44;;;;;;;3.00;2.20;;;;;;;19.97;90.80;100293.31;4952090;28;20206;-70
2021/07/05 10:38:14;;;;;;;3.23;2.33;;;;;;;19.98;89.29;100292.38;4957406;28;20202;-72
2021/07/05 10:40:45;;;;;;;2.70;2.50;;;;;;;20.11;89.03;100283.56;4953086;28;20270;-71
2021/07/05 10:43:15;;;;;;;2.60;2.40;;;;;;;20.36;90.19;100287.91;4960780;28;20234;-71
2021/07/05 10:45:44;;;;;;;2.53;2.33;;;;;;;20.55;90.10;100290.91;4952630;28;20814;-72
2021/07/05 10:48:13;;;;;;;2.30;2.10;;;;;;;20.74;86.92;100297.53;4962681;28;20687;-71
2021/07/05 10:50:53;;;;;;;2.30;2.10;;;;;;;20.88;85.87;100284.13;4955236;28;20234;-70
2021/07/05 10:53:51;;;;;;;2.40;2.20;;;;;;;20.98;81.72;100287.78;4952060;28;20250;-72
2021/07/05 10:56:36;;;;;;;3.20;2.50;;;;;;;21.18;84.49;100280.94;4942321;29;20198;-72
2021/07/05 10:59:35;;;;;;;2.20;2.00;;;;;;;21.48;82.92;100276.94;4960081;28;20202;-70
2021/07/05 11:02:02;;;;;;;2.33;2.13;;;;;;;21.69;81.79;100281.53;4964311;28;20308;-72
2021/07/05 11:04:30;;;;;;;2.63;2.17;;;;;;;21.86;80.07;100290.81;4967127;28;20266;-72
2021/07/05 11:06:58;;;;;;;2.20;1.93;;;;;;;21.88;77.89;100294.19;4955703;28;20697;-71
2021/07/05 11:09:26;;;;;;;2.40;2.10;;;;;;;21.82;77.11;100284.91;4964365;28;20213;-70
2021/07/05 11:11:57;;;;;;;2.55;2.35;;;;;;;22.00;79.42;100281.75;4962884;28;20219;-72
2021/07/05 11:14:27;;;;;;;2.90;2.08;;;;;;;22.01;79.91;100284.31;4946517;29;20231;-70
2021/07/05 11:17:09;;;;;;;2.63;2.38;;;;;;;22.25;80.77;100277.97;4961992;28;20195;-72
2021/07/05 11:19:40;;;;;;;3.03;2.33;;;;;;;22.32;77.98;100276.53;4949819;28;20202;-70
2021/07/05 11:22:18;;;;;;;3.00;2.28;;;;;;;22.46;79.48;100268.31;4961877;28;20210;-70
2021/07/05 11:24:51;;;;;;;2.78;2.20;;;;;;;22.63;77.14;100276.72;4962687;28;20233;-70
2021/07/05 11:27:32;;;;;;;2.45;2.25;;;;;;;22.62;76.86;100285.63;4964427;28;20220;-71